Time;durP1;ratioP1;P1;durP2;ratioP2;P2;SDS_P1;SDS_P2;PMS_P1;PMS_P2;Temp;Humidity;BMP_temperature;BMP_pressure;BME280_temperature;BME280_humidity;BME280_pressure;Samples;Min_cycle;Max_cycle;Signal;HPM_P1;HPM_P2
2021/11/19 00:01:42;;;;;;;28.23;21.27;;;10.30;99.90;;;;;;5011822;28;20382;-81
2021/11/19 00:04:08;;;;;;;27.08;20.52;;;10.30;99.90;;;;;;5042675;28;20523;-83
2021/11/19 00:06:34;;;;;;;29.45;20.52;;;10.30;99.90;;;;;;5021257;28;20916;-81
2021/11/19 00:09:00;;;;;;;26.95;21.33;;;10.30;99.90;;;;;;5019168;28;20394;-84
2021/11/19 00:11:29;;;;;;;28.52;22.02;;;10.20;99.90;;;;;;5021043;28;20471;-84
2021/11/19 00:13:57;;;;;;;25.05;19.98;;;10.30;99.90;;;;;;5045508;28;20883;-83
2021/11/19 00:16:26;;;;;;;29.08;21.52;;;10.40;99.90;;;;;;5031542;28;20399;-85
2021/11/19 00:18:52;;;;;;;28.65;22.08;;;10.40;99.90;;;;;;5013354;28;20496;-83
2021/11/19 00:21:18;;;;;;;31.27;23.23;;;10.30;99.90;;;;;;5031905;28;20393;-82
2021/11/19 00:23:45;;;;;;;26.50;22.40;;;10.30;99.90;;;;;;5028983;28;20496;-81
2021/11/19 00:26:13;;;;;;;29.60;22.63;;;10.30;99.90;;;;;;5030127;28;20461;-84
2021/11/19 00:28:39;;;;;;;34.50;23.90;;;10.30;99.90;;;;;;5032734;28;20408;-82
2021/11/19 00:31:06;;;;;;;34.37;23.30;;;10.30;99.90;;;;;;5026251;28;20397;-84
2021/11/19 00:33:34;;;;;;;30.75;22.45;;;10.30;99.90;;;;;;5014846;28;20470;-83
2021/11/19 00:36:01;;;;;;;30.20;22.15;;;10.30;99.90;;;;;;5040907;28;20404;-85
2021/11/19 00:38:28;;;;;;;29.08;22.77;;;10.30;99.90;;;;;;5019463;28;20419;-82
2021/11/19 00:41:01;;;;;;;28.88;21.52;;;10.30;99.90;;;;;;5019963;28;20750;-83
2021/11/19 00:43:27;;;;;;;28.75;22.45;;;10.40;99.90;;;;;;5039709;28;20395;-85
2021/11/19 00:45:54;;;;;;;32.80;23.90;;;10.30;99.90;;;;;;5040616;28;20450;-81
2021/11/19 00:48:22;;;;;;;30.52;23.13;;;10.40;99.90;;;;;;5036786;28;20395;-83
2021/11/19 00:51:18;;;;;;;28.83;22.50;;;10.40;99.90;;;;;;5020705;28;20433;-83
2021/11/19 00:53:47;;;;;;;28.25;23.10;;;10.40;99.90;;;;;;5026496;28;20395;-83
2021/11/19 00:56:17;;;;;;;31.02;22.48;;;10.50;99.90;;;;;;5013801;28;20401;-88
2021/11/19 00:58:44;;;;;;;27.80;22.92;;;10.50;99.90;;;;;;5029263;28;20424;-83
2021/11/19 01:01:14;;;;;;;30.52;22.67;;;10.50;99.90;;;;;;5030614;28;20420;-82
2021/11/19 01:03:40;;;;;;;26.92;22.80;;;10.50;99.90;;;;;;5042314;28;20384;-83
2021/11/19 01:06:05;;;;;;;33.08;23.88;;;10.50;99.90;;;;;;5033720;28;20879;-82
2021/11/19 01:08:32;;;;;;;25.73;21.75;;;10.50;99.90;;;;;;5029049;28;20560;-82
2021/11/19 01:11:00;;;;;;;28.80;22.05;;;10.50;99.90;;;;;;5034984;28;20795;-84
2021/11/19 01:13:28;;;;;;;27.05;22.38;;;10.50;99.90;;;;;;5000760;28;20401;-83
2021/11/19 01:15:58;;;;;;;27.40;21.85;;;10.50;99.90;;;;;;5013981;28;20384;-85
2021/11/19 01:18:39;;;;;;;26.90;23.00;;;10.60;99.90;;;;;;5036284;28;20415;-87
2021/11/19 01:21:23;;;;;;;26.60;21.87;;;10.60;99.90;;;;;;5010078;28;20476;-82
2021/11/19 01:23:50;;;;;;;25.30;21.80;;;10.70;99.90;;;;;;5031682;28;21207;-84
2021/11/19 01:26:20;;;;;;;27.85;22.08;;;10.80;99.90;;;;;;5023127;28;20424;-83
2021/11/19 01:28:48;;;;;;;25.52;21.80;;;10.80;99.90;;;;;;5038510;28;20407;-82
2021/11/19 01:31:17;;;;;;;25.80;21.58;;;10.70;99.90;;;;;;5046138;28;20402;-83
2021/11/19 01:33:44;;;;;;;26.25;22.88;;;10.80;99.90;;;;;;5027819;28;20369;-81
2021/11/19 01:36:12;;;;;;;24.50;20.80;;;10.70;99.90;;;;;;5028511;28;20393;-84
2021/11/19 01:38:40;;;;;;;25.80;21.17;;;10.70;99.90;;;;;;5037941;28;20414;-82
2021/11/19 01:41:13;;;;;;;25.42;21.02;;;10.70;99.90;;;;;;5028368;28;20950;-85
2021/11/19 01:43:39;;;;;;;26.40;21.42;;;10.70;99.90;;;;;;5030348;28;20399;-83
2021/11/19 01:46:08;;;;;;;25.27;21.38;;;10.80;99.90;;;;;;5016368;28;20470;-83
2021/11/19 01:48:41;;;;;;;24.15;20.35;;;10.80;99.90;;;;;;5021525;28;20474;-84
2021/11/19 01:51:18;;;;;;;23.37;21.03;;;10.80;99.90;;;;;;5021746;28;20482;-85
2021/11/19 01:53:49;;;;;;;23.88;20.88;;;10.80;99.90;;;;;;5033715;28;20468;-86
2021/11/19 01:56:27;;;;;;;23.42;20.67;;;10.80;99.90;;;;;;5029451;28;20421;-82
2021/11/19 01:58:57;;;;;;;23.52;19.98;;;10.80;99.90;;;;;;5030306;28;20462;-84
2021/11/19 02:01:30;;;;;;;25.17;19.88;;;10.80;99.90;;;;;;5031007;28;20483;-83
2021/11/19 02:04:01;;;;;;;26.52;20.15;;;10.80;99.90;;;;;;5030769;28;20401;-85
2021/11/19 02:06:36;;;;;;;24.13;20.52;;;10.80;99.90;;;;;;5032399;28;20381;-84
2021/11/19 02:09:06;;;;;;;23.13;20.13;;;10.90;99.90;;;;;;5032710;28;20393;-82
2021/11/19 02:11:58;;;;;;;22.42;19.70;;;10.90;99.90;;;;;;5014657;28;20374;-83
2021/11/19 02:14:48;;;;;;;22.95;19.67;;;10.90;99.90;;;;;;5030602;28;20389;-85
2021/11/19 02:17:15;;;;;;;21.63;18.55;;;10.90;99.90;;;;;;5029403;28;20382;-84
2021/11/19 02:19:48;;;;;;;21.25;19.00;;;10.90;99.90;;;;;;5012487;28;20446;-85
2021/11/19 02:22:29;;;;;;;22.67;19.58;;;10.90;99.90;;;;;;5013298;28;20472;-86
2021/11/19 02:25:02;;;;;;;21.58;18.83;;;10.90;99.90;;;;;;5030390;28;20479;-84
2021/11/19 02:27:33;;;;;;;20.33;18.08;;;11.00;99.90;;;;;;5012911;28;20428;-83
2021/11/19 02:30:03;;;;;;;19.23;17.20;;;11.00;99.90;;;;;;5030381;28;20412;-84
2021/11/19 02:32:33;;;;;;;21.03;18.83;;;11.10;99.90;;;;;;5012160;28;20395;-85
2021/11/19 02:35:00;;;;;;;20.33;17.67;;;11.00;99.90;;;;;;5012338;28;20893;-86
2021/11/19 02:37:36;;;;;;;19.92;17.73;;;11.10;99.90;;;;;;5030166;28;20447;-84
2021/11/19 02:40:13;;;;;;;19.23;17.27;;;11.10;99.90;;;;;;5030460;28;20501;-82
2021/11/19 02:42:50;;;;;;;18.85;16.95;;;11.10;99.90;;;;;;5012542;28;20389;-82
2021/11/19 02:45:21;;;;;;;18.63;16.70;;;11.10;99.90;;;;;;4996147;28;20389;-82
2021/11/19 02:47:47;;;;;;;18.05;15.90;;;11.10;99.90;;;;;;5014491;28;20398;-82
2021/11/19 02:50:16;;;;;;;18.05;16.15;;;11.10;99.90;;;;;;5037231;28;20421;-80
2021/11/19 02:52:44;;;;;;;18.38;15.48;;;11.10;99.90;;;;;;5022942;28;20393;-83
2021/11/19 02:55:22;;;;;;;16.98;15.18;;;11.10;99.90;;;;;;5030261;28;20404;-84
2021/11/19 02:57:48;;;;;;;16.80;14.95;;;11.20;99.90;;;;;;5030468;28;20412;-83
2021/11/19 03:00:22;;;;;;;18.08;15.80;;;11.20;99.90;;;;;;5030389;28;21338;-84
2021/11/19 03:02:48;;;;;;;17.70;15.73;;;11.10;99.90;;;;;;5026257;28;20405;-83
2021/11/19 03:05:17;;;;;;;18.93;16.57;;;11.20;99.90;;;;;;5029723;28;20405;-87
2021/11/19 03:07:42;;;;;;;17.85;15.50;;;11.20;99.90;;;;;;5011879;28;20424;-82
2021/11/19 03:10:19;;;;;;;17.90;16.00;;;11.20;99.90;;;;;;5030725;28;20394;-87
2021/11/19 03:12:45;;;;;;;18.90;16.27;;;11.20;99.90;;;;;;5012590;28;20405;-87
2021/11/19 03:15:15;;;;;;;18.33;16.47;;;11.20;99.90;;;;;;5012893;28;20389;-82
2021/11/19 03:17:41;;;;;;;18.73;16.37;;;11.20;99.90;;;;;;5029308;28;20387;-84
2021/11/19 03:20:08;;;;;;;19.30;17.13;;;11.30;99.90;;;;;;5011324;28;20393;-83
2021/11/19 03:22:34;;;;;;;18.80;16.80;;;11.20;99.90;;;;;;5011451;28;20414;-83
2021/11/19 03:25:01;;;;;;;18.55;16.25;;;11.30;99.90;;;;;;5012265;28;20966;-84
2021/11/19 03:27:29;;;;;;;18.02;16.00;;;11.40;99.90;;;;;;5029470;28;20427;-84
2021/11/19 03:29:56;;;;;;;19.25;15.85;;;11.40;99.90;;;;;;5012285;28;20873;-83
2021/11/19 03:32:25;;;;;;;18.73;16.73;;;11.40;99.90;;;;;;5012676;28;20740;-85
2021/11/19 03:34:51;;;;;;;20.70;18.10;;;11.40;99.90;;;;;;5029981;28;20389;-84
2021/11/19 03:37:17;;;;;;;24.02;19.05;;;11.40;99.90;;;;;;5012328;28;20385;-86
2021/11/19 03:39:44;;;;;;;25.38;20.85;;;11.30;99.90;;;;;;5012352;28;20440;-84
2021/11/19 03:42:11;;;;;;;24.38;21.27;;;11.30;99.90;;;;;;5029735;28;20756;-84
2021/11/19 03:44:44;;;;;;;27.20;22.17;;;11.30;99.90;;;;;;5029874;28;20393;-84
2021/11/19 03:47:21;;;;;;;27.47;23.00;;;11.20;99.90;;;;;;5011696;28;20887;-85
2021/11/19 03:49:48;;;;;;;31.95;25.50;;;11.20;99.90;;;;;;5010001;28;20430;-83
2021/11/19 03:52:19;;;;;;;32.88;24.83;;;11.10;99.90;;;;;;5008139;28;20401;-86
2021/11/19 03:54:47;;;;;;;34.35;26.77;;;11.10;99.90;;;;;;5011850;28;20442;-84
2021/11/19 03:57:15;;;;;;;34.63;27.48;;;11.10;99.90;;;;;;5029623;28;20520;-83
2021/11/19 03:59:41;;;;;;;36.93;28.03;;;11.10;99.90;;;;;;5029180;28;20401;-83
2021/11/19 04:02:07;;;;;;;38.67;28.90;;;11.10;99.90;;;;;;5028247;28;20763;-83
2021/11/19 04:04:36;;;;;;;39.60;29.02;;;11.10;99.90;;;;;;5011624;28;20489;-83
2021/11/19 04:07:03;;;;;;;38.50;29.05;;;11.10;99.90;;;;;;5028939;28;21102;-84
2021/11/19 04:09:30;;;;;;;38.20;29.92;;;11.10;99.90;;;;;;5028857;28;20394;-83
2021/11/19 04:11:57;;;;;;;45.60;30.40;;;11.10;99.90;;;;;;5010661;28;20475;-85
2021/11/19 04:14:24;;;;;;;41.97;30.23;;;11.10;99.90;;;;;;5011183;28;20386;-84
2021/11/19 04:16:52;;;;;;;41.10;30.80;;;11.10;99.90;;;;;;5029259;28;20433;-83
2021/11/19 04:19:19;;;;;;;43.47;30.35;;;11.00;99.90;;;;;;5010954;28;20414;-85
2021/11/19 04:21:47;;;;;;;42.83;30.60;;;11.10;99.90;;;;;;5029696;28;20461;-87
2021/11/19 04:24:30;;;;;;;44.22;29.83;;;11.20;99.90;;;;;;5011000;28;20416;-84
2021/11/19 04:26:56;;;;;;;44.70;30.38;;;11.20;99.90;;;;;;5010220;28;20417;-87
2021/11/19 04:29:21;;;;;;;40.38;31.10;;;11.30;99.90;;;;;;5010635;28;21068;-84
2021/11/19 04:31:47;;;;;;;43.63;30.60;;;11.20;99.90;;;;;;5011023;28;20381;-84
2021/11/19 04:34:14;;;;;;;42.67;30.80;;;11.10;99.90;;;;;;5027965;28;20410;-85
2021/11/19 04:36:40;;;;;;;41.38;30.83;;;11.10;99.90;;;;;;5028553;28;20397;-84
2021/11/19 04:39:08;;;;;;;45.92;32.10;;;11.20;99.90;;;;;;5010998;28;20402;-84
2021/11/19 04:41:34;;;;;;;45.20;31.52;;;11.10;99.90;;;;;;5010119;28;20409;-85
2021/11/19 04:44:01;;;;;;;37.80;29.07;;;11.20;99.90;;;;;;5027992;28;20895;-85
2021/11/19 04:46:27;;;;;;;43.65;30.95;;;11.30;99.90;;;;;;5009436;28;20803;-85
2021/11/19 04:48:53;;;;;;;40.63;29.03;;;11.20;99.90;;;;;;5028295;28;20406;-81
2021/11/19 04:51:23;;;;;;;39.10;28.43;;;11.20;99.90;;;;;;5027837;28;20760;-83
2021/11/19 04:53:50;;;;;;;39.35;28.05;;;11.30;99.90;;;;;;5028018;28;20425;-85
2021/11/19 04:56:16;;;;;;;38.38;28.52;;;11.30;99.90;;;;;;5030181;28;20389;-84
2021/11/19 04:58:43;;;;;;;41.20;28.60;;;11.40;99.90;;;;;;5010724;28;20432;-84
2021/11/19 05:01:23;;;;;;;38.58;28.33;;;11.30;99.90;;;;;;5010464;28;20389;-87
2021/11/19 05:03:49;;;;;;;39.63;28.42;;;11.30;99.90;;;;;;5027990;28;20393;-87
2021/11/19 05:06:16;;;;;;;39.50;27.98;;;11.40;99.90;;;;;;5028360;28;20886;-84
2021/11/19 05:08:42;;;;;;;36.95;26.15;;;11.40;99.90;;;;;;5027909;28;20388;-84
2021/11/19 05:11:12;;;;;;;33.75;25.70;;;11.40;99.90;;;;;;5027711;28;20405;-83
2021/11/19 05:13:39;;;;;;;31.45;25.20;;;11.40;99.90;;;;;;5009464;28;20409;-83
2021/11/19 05:16:07;;;;;;;32.25;25.00;;;11.40;99.90;;;;;;5028816;28;20396;-85
2021/11/19 05:18:34;;;;;;;29.57;23.60;;;11.40;99.90;;;;;;5010598;28;20467;-84
2021/11/19 05:21:00;;;;;;;27.30;22.52;;;11.50;99.90;;;;;;5010292;28;20389;-85
2021/11/19 05:23:27;;;;;;;26.80;20.95;;;11.40;99.90;;;;;;5028025;28;20413;-84
2021/11/19 05:25:53;;;;;;;27.35;21.27;;;11.50;99.90;;;;;;5027241;28;20459;-83
2021/11/19 05:28:22;;;;;;;24.52;19.98;;;11.50;99.90;;;;;;5010390;28;20756;-86
2021/11/19 05:30:47;;;;;;;23.42;19.10;;;11.50;99.90;;;;;;5010198;28;20386;-85
2021/11/19 05:33:16;;;;;;;22.23;18.08;;;11.60;99.90;;;;;;5026873;28;20385;-84
2021/11/19 05:35:43;;;;;;;23.65;19.02;;;11.60;99.90;;;;;;5011295;28;20397;-85
2021/11/19 05:38:10;;;;;;;21.02;17.35;;;11.70;99.90;;;;;;5010629;28;20416;-88
2021/11/19 05:40:36;;;;;;;23.60;17.80;;;11.70;99.90;;;;;;5027829;28;20389;-85
2021/11/19 05:43:02;;;;;;;21.53;17.53;;;11.60;99.90;;;;;;5028383;28;20756;-82
2021/11/19 05:45:30;;;;;;;21.85;18.35;;;11.70;99.90;;;;;;5010328;28;20879;-83
2021/11/19 05:47:56;;;;;;;22.10;17.05;;;11.60;99.90;;;;;;5010912;28;20400;-82
2021/11/19 05:50:24;;;;;;;19.35;16.67;;;11.70;99.90;;;;;;5011617;28;20377;-85
2021/11/19 05:52:52;;;;;;;21.93;16.97;;;11.70;99.90;;;;;;5010896;28;20423;-83
2021/11/19 05:55:21;;;;;;;21.50;16.95;;;11.80;99.90;;;;;;5009757;28;20913;-84
2021/11/19 05:57:48;;;;;;;17.77;15.93;;;11.70;99.90;;;;;;5010004;28;20393;-83
2021/11/19 06:00:20;;;;;;;18.27;15.43;;;11.70;99.90;;;;;;5008610;28;20381;-86
2021/11/19 06:02:46;;;;;;;19.55;15.52;;;11.70;99.90;;;;;;5010635;28;20393;-85
2021/11/19 06:05:12;;;;;;;18.95;16.13;;;11.70;99.90;;;;;;5027826;28;20408;-86
2021/11/19 06:07:39;;;;;;;19.75;16.00;;;11.70;99.90;;;;;;5009910;28;20401;-83
2021/11/19 06:10:08;;;;;;;19.90;16.08;;;11.70;99.90;;;;;;5010754;28;20377;-82
2021/11/19 06:12:39;;;;;;;18.95;16.08;;;11.80;99.90;;;;;;5025976;28;20468;-81
2021/11/19 06:15:12;;;;;;;18.80;15.90;;;11.70;99.90;;;;;;5027907;28;20385;-80
2021/11/19 06:17:42;;;;;;;17.70;15.77;;;11.70;99.90;;;;;;5027673;28;21256;-81
2021/11/19 06:20:30;;;;;;;18.35;15.43;;;11.70;99.90;;;;;;5010298;28;20394;-81
2021/11/19 06:23:01;;;;;;;17.88;15.63;;;11.80;99.90;;;;;;5010596;28;20872;-84
2021/11/19 06:25:30;;;;;;;16.33;14.60;;;11.80;99.90;;;;;;5028605;28;20470;-82
2021/11/19 06:27:59;;;;;;;17.80;14.30;;;11.80;99.90;;;;;;5030460;28;20405;-82
2021/11/19 06:30:26;;;;;;;15.77;14.15;;;11.80;99.90;;;;;;5012581;28;20416;-81
2021/11/19 06:32:52;;;;;;;15.80;13.90;;;11.80;99.90;;;;;;5013691;28;20451;-81
2021/11/19 06:35:18;;;;;;;14.83;13.30;;;11.80;99.90;;;;;;5013785;28;20879;-84
2021/11/19 06:37:44;;;;;;;15.15;13.55;;;11.80;99.90;;;;;;5031039;28;20448;-83
2021/11/19 06:40:16;;;;;;;14.95;13.32;;;11.90;99.90;;;;;;5031168;28;20377;-81
2021/11/19 06:42:44;;;;;;;14.80;13.25;;;11.80;99.90;;;;;;5031624;28;20382;-82
2021/11/19 06:45:11;;;;;;;15.57;13.50;;;11.90;99.90;;;;;;5013734;28;20397;-84
2021/11/19 06:47:37;;;;;;;15.65;13.85;;;11.80;99.90;;;;;;5012972;28;20437;-82
2021/11/19 06:50:04;;;;;;;14.70;12.90;;;11.90;99.90;;;;;;5013604;28;20440;-81
2021/11/19 06:52:29;;;;;;;14.80;12.63;;;11.90;99.90;;;;;;5031467;28;20381;-82
2021/11/19 06:54:55;;;;;;;15.83;13.77;;;12.00;99.90;;;;;;5014024;28;20385;-85
2021/11/19 06:57:21;;;;;;;15.63;13.48;;;12.00;99.90;;;;;;5013696;28;20430;-83
2021/11/19 06:59:47;;;;;;;15.63;13.80;;;12.00;99.90;;;;;;5013534;28;20463;-85
2021/11/19 07:02:13;;;;;;;16.10;13.20;;;11.90;99.90;;;;;;5031595;28;20378;-83
2021/11/19 07:04:38;;;;;;;15.43;13.82;;;11.90;99.90;;;;;;5013905;28;20883;-82
2021/11/19 07:07:07;;;;;;;16.48;14.55;;;12.00;99.90;;;;;;5013804;28;20382;-84
2021/11/19 07:09:34;;;;;;;15.40;13.80;;;12.00;99.90;;;;;;5030153;28;20451;-83
2021/11/19 07:12:00;;;;;;;15.45;13.82;;;12.00;99.90;;;;;;5015664;28;20798;-83
2021/11/19 07:14:27;;;;;;;15.55;13.30;;;12.00;99.90;;;;;;5013823;28;20386;-84
2021/11/19 07:16:53;;;;;;;14.48;12.98;;;12.10;99.90;;;;;;5030014;28;20385;-83
2021/11/19 07:19:20;;;;;;;13.82;12.43;;;12.00;99.90;;;;;;5013723;28;21155;-84
2021/11/19 07:21:46;;;;;;;15.40;12.93;;;12.10;99.90;;;;;;5031154;28;20472;-82
2021/11/19 07:24:12;;;;;;;15.53;13.60;;;12.00;99.90;;;;;;5030262;28;20508;-83
2021/11/19 07:26:38;;;;;;;14.40;12.80;;;12.00;99.90;;;;;;5029601;28;20397;-85
2021/11/19 07:29:06;;;;;;;14.70;13.20;;;12.10;99.90;;;;;;5012886;28;20393;-86
2021/11/19 07:31:33;;;;;;;15.15;13.02;;;12.10;99.90;;;;;;5012872;28;20489;-86
2021/11/19 07:33:58;;;;;;;14.32;12.85;;;12.20;99.90;;;;;;5012933;28;20432;-86
2021/11/19 07:36:24;;;;;;;14.50;12.35;;;12.20;99.90;;;;;;5012518;28;20736;-83
2021/11/19 07:38:50;;;;;;;14.48;12.90;;;12.20;99.90;;;;;;5030556;28;20405;-83
2021/11/19 07:41:18;;;;;;;14.23;12.63;;;12.10;99.90;;;;;;5030308;28;20439;-85
2021/11/19 07:43:44;;;;;;;14.75;13.10;;;12.10;99.90;;;;;;5030341;28;20457;-83
2021/11/19 07:46:14;;;;;;;14.70;12.10;;;12.10;99.90;;;;;;5030138;28;20909;-84
2021/11/19 07:48:41;;;;;;;13.90;11.50;;;12.20;99.90;;;;;;5030454;28;20863;-86
2021/11/19 07:51:12;;;;;;;14.38;12.52;;;12.30;99.90;;;;;;5012481;28;20382;-84
2021/11/19 07:53:38;;;;;;;12.45;11.15;;;12.30;99.90;;;;;;5013510;28;20378;-84
2021/11/19 07:56:05;;;;;;;14.25;12.60;;;12.30;99.90;;;;;;5031682;28;20736;-83
2021/11/19 07:58:31;;;;;;;13.05;11.75;;;12.40;99.90;;;;;;5028920;28;20799;-84
2021/11/19 08:01:00;;;;;;;14.07;12.57;;;12.40;99.90;;;;;;5028294;28;20397;-82
2021/11/19 08:03:27;;;;;;;16.35;12.25;;;12.40;99.90;;;;;;5027135;28;20377;-84
2021/11/19 08:05:56;;;;;;;14.20;12.43;;;12.40;99.90;;;;;;5027743;28;20431;-82
2021/11/19 08:08:22;;;;;;;14.63;13.00;;;12.40;99.90;;;;;;5028125;28;20439;-85
2021/11/19 08:10:51;;;;;;;15.10;13.18;;;12.40;99.90;;;;;;5029665;28;20370;-87
2021/11/19 08:13:18;;;;;;;14.75;12.85;;;12.30;99.90;;;;;;5011926;28;20377;-82
2021/11/19 08:15:44;;;;;;;14.32;12.45;;;12.40;99.90;;;;;;5012182;28;20439;-84
2021/11/19 08:18:37;;;;;;;14.38;12.77;;;12.40;99.90;;;;;;4995680;28;20434;-85
2021/11/19 08:21:03;;;;;;;14.90;13.25;;;12.40;99.90;;;;;;5006050;28;20404;-82
2021/11/19 08:23:34;;;;;;;15.75;12.88;;;12.50;99.90;;;;;;5020247;28;20404;-84
2021/11/19 08:26:14;;;;;;;16.80;13.00;;;12.40;99.90;;;;;;5027106;28;20391;-84
2021/11/19 08:28:41;;;;;;;15.13;13.48;;;12.40;99.90;;;;;;5025178;28;20396;-83
2021/11/19 08:31:12;;;;;;;15.82;13.90;;;12.40;99.90;;;;;;5015834;28;20385;-82
2021/11/19 08:33:38;;;;;;;15.40;13.82;;;12.40;99.90;;;;;;5025046;28;20477;-83
2021/11/19 08:36:05;;;;;;;15.95;13.57;;;12.40;99.90;;;;;;5014812;28;20425;-83
2021/11/19 08:38:31;;;;;;;16.27;14.07;;;12.40;99.90;;;;;;5015486;28;20399;-84
2021/11/19 08:40:57;;;;;;;15.57;13.98;;;12.40;99.90;;;;;;5007220;28;20397;-87
2021/11/19 08:43:27;;;;;;;16.30;13.95;;;12.40;99.90;;;;;;5025822;28;20472;-87
2021/11/19 08:45:53;;;;;;;15.85;14.05;;;12.50;99.90;;;;;;5014953;28;20377;-84
2021/11/19 08:48:25;;;;;;;16.92;14.68;;;12.50;99.90;;;;;;5025719;28;20417;-82
2021/11/19 08:50:52;;;;;;;16.50;14.77;;;12.40;99.90;;;;;;5027002;28;20413;-81
2021/11/19 08:53:18;;;;;;;15.32;13.68;;;12.40;99.90;;;;;;5029163;28;20389;-83
2021/11/19 08:55:50;;;;;;;17.08;15.13;;;12.50;99.90;;;;;;5016613;28;20405;-83
2021/11/19 08:58:25;;;;;;;16.83;14.65;;;12.50;99.90;;;;;;5029277;28;20414;-86
2021/11/19 09:00:54;;;;;;;18.27;15.30;;;12.60;99.90;;;;;;5028703;28;20472;-86
2021/11/19 09:03:20;;;;;;;17.33;15.27;;;12.50;99.90;;;;;;5028827;28;20377;-85
2021/11/19 09:05:46;;;;;;;19.08;15.27;;;12.60;99.90;;;;;;5029166;28;20956;-85
2021/11/19 09:08:16;;;;;;;20.08;15.70;;;12.50;99.90;;;;;;5028817;28;20431;-84
2021/11/19 09:10:43;;;;;;;17.30;14.97;;;12.50;99.90;;;;;;5018805;28;20445;-84
2021/11/19 09:13:11;;;;;;;19.13;16.42;;;12.50;99.90;;;;;;5026076;28;20770;-84
2021/11/19 09:15:37;;;;;;;20.77;16.30;;;12.50;99.90;;;;;;5026190;28;20365;-84
2021/11/19 09:18:12;;;;;;;18.65;16.50;;;12.60;99.90;;;;;;5014519;28;20398;-85
2021/11/19 09:21:05;;;;;;;19.00;16.03;;;12.60;99.90;;;;;;5015005;28;20385;-86
2021/11/19 09:23:36;;;;;;;17.95;15.68;;;12.60;99.90;;;;;;5028763;28;20397;-83
2021/11/19 09:26:12;;;;;;;21.75;16.58;;;12.50;99.90;;;;;;5024733;28;20404;-86
2021/11/19 09:28:41;;;;;;;19.35;16.85;;;12.50;99.90;;;;;;5014854;28;20420;-81
2021/11/19 09:31:09;;;;;;;23.52;17.08;;;12.50;99.90;;;;;;5026190;28;20435;-84
2021/11/19 09:33:35;;;;;;;21.63;16.67;;;12.70;99.90;;;;;;5026791;28;20400;-84
2021/11/19 09:36:02;;;;;;;20.23;16.20;;;12.70;99.90;;;;;;5027501;28;20451;-84
2021/11/19 09:38:29;;;;;;;20.75;17.05;;;12.80;99.90;;;;;;5027060;28;20464;-83
2021/11/19 09:41:27;;;;;;;20.08;16.83;;;12.80;99.90;;;;;;5009946;28;20396;-84
2021/11/19 09:44:14;;;;;;;22.35;17.98;;;12.80;99.90;;;;;;5001212;28;20405;-84
2021/11/19 09:47:15;;;;;;;21.00;17.65;;;12.80;99.90;;;;;;5007680;28;20387;-85
2021/11/19 09:50:00;;;;;;;22.20;18.45;;;12.70;99.90;;;;;;4992432;28;20394;-86
2021/11/19 09:52:47;;;;;;;20.67;17.20;;;12.70;99.90;;;;;;5011922;28;20421;-83
2021/11/19 09:55:14;;;;;;;20.98;17.25;;;12.80;99.90;;;;;;5013385;28;20393;-85
2021/11/19 09:58:13;;;;;;;20.27;18.05;;;12.90;99.90;;;;;;5012812;28;20884;-85
2021/11/19 10:01:14;;;;;;;22.40;18.48;;;12.90;99.90;;;;;;5027744;28;20389;-86
2021/11/19 10:04:01;;;;;;;22.98;18.83;;;12.90;99.90;;;;;;5015637;28;20851;-85
2021/11/19 10:07:07;;;;;;;21.23;17.80;;;12.80;99.90;;;;;;5017296;28;20393;-87
2021/11/19 10:09:49;;;;;;;23.73;18.25;;;12.80;99.90;;;;;;5028105;28;20417;-81
2021/11/19 10:12:31;;;;;;;21.83;18.73;;;12.80;99.90;;;;;;5011505;28;20385;-88
2021/11/19 10:15:21;;;;;;;24.13;18.48;;;12.70;99.90;;;;;;5029090;28;21067;-83
2021/11/19 10:18:07;;;;;;;22.57;18.33;;;12.70;99.90;;;;;;5029330;28;20491;-84
2021/11/19 10:20:45;;;;;;;20.33;17.80;;;12.70;99.90;;;;;;5027715;28;20417;-84
2021/11/19 10:23:15;;;;;;;22.02;17.73;;;12.70;99.90;;;;;;5011052;28;20425;-82
2021/11/19 10:26:07;;;;;;;21.08;17.05;;;12.80;99.90;;;;;;5029987;28;20733;-84
2021/11/19 10:28:40;;;;;;;21.10;17.13;;;12.90;99.90;;;;;;5015624;28;20635;-83
2021/11/19 10:31:10;;;;;;;20.90;17.00;;;12.80;99.90;;;;;;5013115;28;20789;-82
2021/11/19 10:33:41;;;;;;;22.47;17.43;;;12.80;99.90;;;;;;5027678;28;20381;-84
2021/11/19 10:36:17;;;;;;;24.05;17.75;;;12.90;99.90;;;;;;5028892;28;20435;-83
2021/11/19 10:39:22;;;;;;;20.03;16.57;;;12.80;99.90;;;;;;5026494;28;20413;-82
2021/11/19 10:42:22;;;;;;;23.02;16.90;;;12.90;99.90;;;;;;5027552;28;20393;-81
2021/11/19 10:44:54;;;;;;;23.27;17.15;;;12.90;99.90;;;;;;5014002;28;20409;-83
2021/11/19 10:47:32;;;;;;;21.63;16.40;;;12.90;99.90;;;;;;5017912;28;20472;-85
2021/11/19 10:50:00;;;;;;;20.65;15.43;;;13.00;99.90;;;;;;5011482;28;20423;-85
2021/11/19 10:52:52;;;;;;;18.42;15.38;;;12.90;99.90;;;;;;5012363;28;20827;-84
2021/11/19 10:55:49;;;;;;;20.70;14.52;;;13.00;99.90;;;;;;5021406;28;20405;-81
2021/11/19 10:58:23;;;;;;;17.52;14.18;;;13.00;99.90;;;;;;5031201;28;20409;-84
2021/11/19 11:01:02;;;;;;;20.25;14.40;;;13.00;99.90;;;;;;5000303;28;20447;-86
2021/11/19 11:03:33;;;;;;;17.73;13.07;;;13.00;99.90;;;;;;5030270;28;20440;-82
2021/11/19 11:06:09;;;;;;;18.05;14.10;;;12.90;99.90;;;;;;5000120;28;20449;-82
2021/11/19 11:08:41;;;;;;;17.98;13.68;;;12.90;99.90;;;;;;5028184;28;20866;-82
2021/11/19 11:11:12;;;;;;;17.63;13.23;;;12.90;99.90;;;;;;5012144;28;20378;-81
2021/11/19 11:13:40;;;;;;;19.33;14.02;;;13.00;99.90;;;;;;5012730;28;20417;-85
2021/11/19 11:16:26;;;;;;;20.17;13.95;;;13.00;99.90;;;;;;5030779;28;20382;-82
2021/11/19 11:19:02;;;;;;;19.20;13.88;;;13.10;99.90;;;;;;5030783;28;20405;-84
2021/11/19 11:21:35;;;;;;;19.30;13.07;;;13.00;99.90;;;;;;5029231;28;20389;-84
2021/11/19 11:24:26;;;;;;;19.75;13.43;;;13.00;99.90;;;;;;4999886;28;20403;-83
2021/11/19 11:27:26;;;;;;;20.08;13.52;;;13.00;99.90;;;;;;4993198;28;20760;-85
2021/11/19 11:29:56;;;;;;;18.60;13.27;;;13.00;99.90;;;;;;5010206;28;20414;-82
2021/11/19 11:32:22;;;;;;;17.42;12.70;;;13.10;99.90;;;;;;5019466;28;20401;-81
2021/11/19 11:34:47;;;;;;;16.57;12.43;;;13.00;99.90;;;;;;5031153;28;20386;-81
2021/11/19 11:37:15;;;;;;;17.90;12.73;;;13.00;99.90;;;;;;5011059;28;20760;-84
2021/11/19 11:39:48;;;;;;;16.85;12.23;;;13.00;99.90;;;;;;5030053;28;20401;-83
2021/11/19 11:42:23;;;;;;;18.52;12.18;;;13.00;99.90;;;;;;5028937;28;20420;-85
2021/11/19 11:44:51;;;;;;;15.60;12.02;;;13.00;99.90;;;;;;5030555;28;20393;-82
2021/11/19 11:47:36;;;;;;;14.43;10.77;;;13.10;99.90;;;;;;5029952;28;20539;-84
2021/11/19 11:50:32;;;;;;;15.02;10.05;;;13.20;99.90;;;;;;5012342;28;20458;-84
2021/11/19 11:53:09;;;;;;;12.23;9.60;;;13.20;99.90;;;;;;5011606;28;20481;-86
2021/11/19 11:55:40;;;;;;;13.23;8.90;;;13.20;99.90;;;;;;5029796;28;20443;-86
2021/11/19 11:58:29;;;;;;;12.77;8.52;;;13.20;99.90;;;;;;5011771;28;20509;-84
2021/11/19 12:01:21;;;;;;;11.43;7.88;;;13.20;99.90;;;;;;5029829;28;20381;-82
2021/11/19 12:03:57;;;;;;;13.18;8.02;;;13.20;99.90;;;;;;5016302;28;20459;-84
2021/11/19 12:06:41;;;;;;;10.45;7.45;;;13.20;99.90;;;;;;5030828;28;20456;-82
2021/11/19 12:09:22;;;;;;;13.05;6.80;;;13.10;99.90;;;;;;5030667;28;20432;-83
2021/11/19 12:12:16;;;;;;;11.00;7.15;;;13.20;99.90;;;;;;5012581;28;20884;-84
2021/11/19 12:14:53;;;;;;;10.40;7.57;;;13.20;99.90;;;;;;5029753;28;20461;-83
2021/11/19 12:17:27;;;;;;;11.20;7.65;;;13.20;99.90;;;;;;5011923;28;20417;-82
2021/11/19 12:20:15;;;;;;;9.63;7.05;;;13.10;99.90;;;;;;5027720;28;20472;-84
2021/11/19 12:23:02;;;;;;;11.90;7.80;;;13.20;99.90;;;;;;5011403;28;20408;-83
2021/11/19 12:25:57;;;;;;;11.13;8.20;;;13.20;99.90;;;;;;5012283;28;20485;-85
2021/11/19 12:28:29;;;;;;;13.43;8.82;;;13.20;99.90;;;;;;5029740;28;20404;-83
2021/11/19 12:30:55;;;;;;;13.13;8.32;;;13.10;99.90;;;;;;5011789;28;20756;-82
2021/11/19 12:33:28;;;;;;;13.05;8.70;;;13.20;99.90;;;;;;5029444;28;20372;-82
2021/11/19 12:35:57;;;;;;;13.00;8.65;;;13.20;99.90;;;;;;5013734;28;20387;-83
2021/11/19 12:38:30;;;;;;;11.52;8.90;;;13.20;99.90;;;;;;5009473;28;20396;-83
2021/11/19 12:41:05;;;;;;;11.60;8.80;;;13.10;99.90;;;;;;5009999;28;20375;-83
2021/11/19 12:43:50;;;;;;;12.48;9.18;;;13.20;99.90;;;;;;4992219;28;20387;-85
2021/11/19 12:46:34;;;;;;;16.97;9.90;;;13.10;99.90;;;;;;5008420;28;20928;-84
2021/11/19 12:49:05;;;;;;;12.07;9.07;;;13.20;99.90;;;;;;5008602;28;20387;-82
2021/11/19 12:51:51;;;;;;;14.02;8.85;;;13.20;99.90;;;;;;5009884;28;20375;-83